Terminal Aerodrome Forecast
Issued by NWS

Home | Current Version | Previous Version | Text Only | Print | Product List | Glossary On
Versions: 1 2 3 4 5 6 7 8 9 10 11 12 13 14 15 16 17 18 19 20 21
000
FTUS43 KDVN 261100
TAFBRL
TAF
KBRL 261132Z 2612/2712 21005KT P6SM SCT120
     FM261300 32012KT P6SM SCT035 BKN100
      TEMPO 2614/2616 5SM TSRA BR BKN035CB
     FM261600 35007KT P6SM VCSH SCT035
     FM261800 03006KT P6SM SCT050 PROB30 2708/2712 3SM TSRA BR
      BKN035CB=

USA.gov is the U.S. government's official web portal to all federal, state and local government web resources and services.